createdAt,value
2019-04-30T00:02:35.634Z,43.07
2019-04-30T00:05:39.245Z,48.07
2019-04-30T00:08:46.423Z,42.40
2019-04-30T00:15:01.837Z,46.07
2019-04-30T00:24:25.823Z,49.10
2019-04-30T00:27:32.672Z,46.27
2019-04-30T00:30:43.991Z,47.77
2019-04-30T00:33:48.262Z,44.23
2019-04-30T00:36:56.124Z,41.07
2019-04-30T00:40:05.486Z,49.13
2019-04-30T00:43:12.268Z,41.53
2019-04-30T00:46:25.515Z,52.23
2019-04-30T00:49:28.227Z,53.23
2019-04-30T00:52:37.251Z,42.47
2019-04-30T00:55:48.367Z,42.90
2019-04-30T00:58:57.437Z,48.90
2019-04-30T01:02:10.489Z,42.53
2019-04-30T01:08:28.744Z,41.53
2019-04-30T01:11:39.814Z,49.60
2019-04-30T01:14:47.285Z,45.57
2019-04-30T01:17:54.254Z,48.60
2019-04-30T01:21:02.968Z,44.80
2019-04-30T01:24:09.954Z,53.50
2019-04-30T01:27:18.709Z,46.83
2019-04-30T01:30:25.649Z,46.10
2019-04-30T01:33:34.695Z,45.93
2019-04-30T01:36:43.471Z,53.70
2019-04-30T01:39:51.753Z,54.33
2019-04-30T01:42:59.292Z,48.67
2019-04-30T01:49:14.232Z,46.90
2019-04-30T01:52:21.243Z,51.83
2019-04-30T01:55:35.599Z,49.00
2019-04-30T01:58:49.471Z,45.53
2019-04-30T02:01:58.520Z,53.57
2019-04-30T02:05:08.813Z,51.30
2019-04-30T02:08:15.865Z,49.57
2019-04-30T02:11:22.685Z,55.53
2019-04-30T02:14:29.513Z,45.77
2019-04-30T02:17:36.374Z,48.93
2019-04-30T02:20:43.293Z,48.83
2019-04-30T02:23:50.270Z,44.93
2019-04-30T02:26:57.260Z,43.43
2019-04-30T02:30:05.353Z,39.17
2019-04-30T02:33:13.277Z,44.57
2019-04-30T02:36:24.315Z,48.30
2019-04-30T02:39:32.927Z,48.10
2019-04-30T02:42:39.970Z,43.47
2019-04-30T02:45:49.675Z,51.27
2019-04-30T02:48:56.279Z,40.30
2019-04-30T02:52:04.462Z,40.83
2019-04-30T02:55:16.269Z,41.00
2019-04-30T02:58:23.273Z,44.03
2019-04-30T03:01:30.637Z,44.97
2019-04-30T03:04:39.514Z,42.67
2019-04-30T03:07:53.028Z,38.70
2019-04-30T03:10:56.255Z,38.50
2019-04-30T03:14:03.540Z,35.00
2019-04-30T03:17:12.620Z,41.17
2019-04-30T03:20:35.128Z,40.97
2019-04-30T03:23:32.883Z,40.23
2019-04-30T03:26:40.276Z,43.83
2019-04-30T03:29:50.226Z,40.50
2019-04-30T03:32:57.231Z,46.93
2019-04-30T03:36:04.249Z,41.67
2019-04-30T03:39:11.451Z,40.47
2019-04-30T03:42:19.862Z,35.83
2019-04-30T03:45:30.028Z,37.37
2019-04-30T03:48:35.897Z,41.10
2019-04-30T03:51:42.786Z,42.03
2019-04-30T03:54:50.945Z,44.87
2019-04-30T03:58:00.167Z,35.73
2019-04-30T04:01:19.471Z,36.47
2019-04-30T04:04:33.812Z,35.40
2019-04-30T04:07:42.596Z,38.47
2019-04-30T04:11:03.036Z,38.27
2019-04-30T04:14:10.584Z,41.07
2019-04-30T04:17:20.243Z,42.00
2019-04-30T04:20:26.836Z,37.43
2019-04-30T04:23:33.871Z,36.90
2019-04-30T04:26:43.556Z,43.50
2019-04-30T04:29:51.220Z,33.50
2019-04-30T04:32:59.906Z,47.63
2019-04-30T04:36:09.185Z,42.87
2019-04-30T04:39:15.948Z,35.10
2019-04-30T04:42:22.724Z,37.87
2019-04-30T04:45:30.706Z,39.70
2019-04-30T04:48:39.462Z,36.27
2019-04-30T04:54:52.328Z,39.00
2019-04-30T04:57:59.864Z,37.47
2019-04-30T05:01:08.685Z,37.33
2019-04-30T05:04:15.974Z,44.07
2019-04-30T05:07:25.576Z,42.57
2019-04-30T05:10:32.632Z,40.27
2019-04-30T05:13:39.630Z,35.93
2019-04-30T05:16:46.638Z,41.20
2019-04-30T05:19:53.713Z,41.67
2019-04-30T05:23:00.579Z,44.70
2019-04-30T05:26:08.451Z,39.17
2019-04-30T05:29:16.223Z,48.00
2019-04-30T05:32:23.948Z,40.20
2019-04-30T05:35:31.214Z,38.77
2019-04-30T05:38:39.168Z,42.30
2019-04-30T05:41:49.070Z,37.27
2019-04-30T05:44:55.236Z,45.07
2019-04-30T05:48:02.254Z,38.80
2019-04-30T05:51:09.294Z,39.57
2019-04-30T05:57:22.514Z,35.07
2019-04-30T06:00:30.618Z,30.47
2019-04-30T06:03:38.591Z,30.30
2019-04-30T06:06:45.629Z,28.93
2019-04-30T06:10:06.635Z,28.97
2019-04-30T06:13:15.263Z,25.40
2019-04-30T06:16:23.747Z,27.83
2019-04-30T06:19:31.011Z,26.10
2019-04-30T06:22:38.649Z,28.67
2019-04-30T06:25:57.419Z,29.27
2019-04-30T06:28:54.608Z,21.90
2019-04-30T06:32:02.107Z,19.17
2019-04-30T06:35:09.262Z,11.13
2019-04-30T06:44:37.457Z,13.70
2019-04-30T06:47:39.054Z,16.47
2019-04-30T06:50:46.157Z,8.93
2019-04-30T06:53:53.205Z,10.53
2019-04-30T06:57:00.238Z,9.77
2019-04-30T07:00:09.857Z,11.80
2019-04-30T07:03:16.818Z,15.97
2019-04-30T07:06:29.798Z,15.87
2019-04-30T07:09:52.101Z,11.15
2019-04-30T07:12:49.750Z,10.90
2019-04-30T07:15:58.494Z,14.20
2019-04-30T07:19:05.599Z,13.20
2019-04-30T07:22:13.302Z,13.63
2019-04-30T07:25:20.236Z,11.73
2019-04-30T07:28:42.797Z,17.20
2019-04-30T07:31:36.646Z,11.67
2019-04-30T07:34:43.938Z,11.43
2019-04-30T07:37:54.558Z,13.67
2019-04-30T07:40:59.395Z,26.67
2019-04-30T07:47:12.465Z,11.90
2019-04-30T07:50:21.511Z,13.50
2019-04-30T07:53:30.931Z,13.47
2019-04-30T07:56:41.546Z,14.60
2019-04-30T07:59:47.256Z,13.13
2019-04-30T08:02:59.847Z,13.57
2019-04-30T08:06:10.140Z,12.70
2019-04-30T08:09:16.016Z,13.73
2019-04-30T08:12:30.219Z,9.57
2019-04-30T08:15:33.855Z,9.37
2019-04-30T08:18:41.104Z,13.13
2019-04-30T08:21:48.630Z,10.57
2019-04-30T08:24:56.068Z,12.33
2019-04-30T08:28:03.293Z,9.33
2019-04-30T08:31:10.638Z,9.10
2019-04-30T08:34:20.092Z,10.07
2019-04-30T08:37:28.874Z,8.03
2019-04-30T08:40:39.259Z,8.70
2019-04-30T08:43:46.286Z,12.87
2019-04-30T08:46:53.480Z,14.30
2019-04-30T08:50:02.659Z,16.40
2019-04-30T08:53:10.930Z,11.45
2019-04-30T08:59:26.267Z,12.50
2019-04-30T09:02:33.253Z,9.40
2019-04-30T09:05:40.461Z,9.60
2019-04-30T09:08:48.979Z,10.33
2019-04-30T09:11:59.121Z,7.70
2019-04-30T09:15:09.163Z,6.50
2019-04-30T09:21:23.510Z,5.07
2019-04-30T09:24:31.152Z,4.77
2019-04-30T09:27:39.748Z,4.23
2019-04-30T09:30:48.446Z,4.53
2019-04-30T09:34:00.158Z,4.30
2019-04-30T09:37:06.405Z,6.77
2019-04-30T09:43:21.282Z,5.73
2019-04-30T09:46:30.048Z,2.80
2019-04-30T09:49:38.828Z,6.70
2019-04-30T09:52:46.285Z,4.30
2019-04-30T09:55:53.433Z,8.00
2019-04-30T09:59:00.706Z,5.73
2019-04-30T10:02:09.298Z,5.20
2019-04-30T10:05:18.886Z,9.23
2019-04-30T10:08:30.697Z,5.50
2019-04-30T10:11:43.596Z,5.53
2019-04-30T10:14:50.936Z,7.10
2019-04-30T10:17:58.711Z,5.97
2019-04-30T10:21:06.273Z,5.43
2019-04-30T10:24:15.750Z,4.67
2019-04-30T10:27:23.290Z,10.27
2019-04-30T10:30:36.319Z,6.07
2019-04-30T10:39:56.537Z,5.40
2019-04-30T10:43:03.683Z,8.23
2019-04-30T10:46:10.799Z,3.57
2019-04-30T10:49:19.228Z,6.63
2019-04-30T10:52:26.526Z,6.27
2019-04-30T10:55:33.507Z,5.30
2019-04-30T10:58:40.443Z,14.63
2019-04-30T11:01:49.281Z,8.77
2019-04-30T11:04:56.716Z,5.47
2019-04-30T11:08:03.594Z,4.53
2019-04-30T11:11:10.558Z,8.63
2019-04-30T11:14:17.472Z,8.17
2019-04-30T11:17:24.485Z,6.90
2019-04-30T11:20:32.018Z,5.17
2019-04-30T11:23:39.650Z,10.20
2019-04-30T11:26:49.681Z,4.37
2019-04-30T11:30:01.497Z,4.17
2019-04-30T11:33:06.808Z,7.43
2019-04-30T11:36:14.044Z,7.03
2019-04-30T11:39:22.258Z,4.97
2019-04-30T11:42:32.276Z,6.00
2019-04-30T11:46:00.319Z,4.60
2019-04-30T11:49:07.320Z,6.42
2019-04-30T11:52:14.790Z,4.23
2019-04-30T11:55:22.079Z,6.27
2019-04-30T11:58:30.554Z,7.60
2019-04-30T12:01:37.934Z,7.80
2019-04-30T12:04:45.590Z,8.27
2019-04-30T12:07:55.254Z,7.10
2019-04-30T12:11:04.969Z,5.20
2019-04-30T12:14:11.774Z,5.60
2019-04-30T12:17:18.876Z,7.93
2019-04-30T12:20:25.945Z,6.40
2019-04-30T12:23:32.880Z,4.33
2019-04-30T12:26:40.259Z,3.87
2019-04-30T12:29:49.456Z,6.40
2019-04-30T12:32:56.309Z,5.00
2019-04-30T12:36:06.290Z,8.97
2019-04-30T12:39:12.244Z,5.60
2019-04-30T12:42:19.262Z,4.47
2019-04-30T12:45:26.383Z,4.85
2019-04-30T12:51:45.851Z,3.42
2019-04-30T12:54:53.099Z,3.72
2019-04-30T12:58:01.910Z,4.33
2019-04-30T13:01:11.555Z,4.12
2019-04-30T13:04:19.392Z,5.40
2019-04-30T13:07:27.695Z,5.97
2019-04-30T13:10:36.190Z,7.53
2019-04-30T13:13:44.155Z,8.00
2019-04-30T13:16:51.539Z,4.40
2019-04-30T13:19:58.402Z,3.87
2019-04-30T13:23:08.721Z,5.60
2019-04-30T13:26:18.554Z,5.90
2019-04-30T13:29:30.265Z,6.85
2019-04-30T13:32:39.492Z,4.40
2019-04-30T13:35:46.459Z,7.62
2019-04-30T13:38:55.264Z,5.65
2019-04-30T13:42:15.089Z,5.40
2019-04-30T13:45:12.897Z,6.80
2019-04-30T13:48:19.848Z,11.20
2019-04-30T13:51:29.305Z,7.65
2019-04-30T13:54:38.347Z,7.30
2019-04-30T13:57:45.394Z,13.10
2019-04-30T14:00:54.003Z,6.80
2019-04-30T14:04:05.782Z,6.00
2019-04-30T14:07:13.257Z,9.03
2019-04-30T14:10:21.072Z,5.50
2019-04-30T14:13:28.315Z,7.77
2019-04-30T14:19:41.720Z,12.93
2019-04-30T14:22:49.342Z,11.63
2019-04-30T14:25:57.004Z,18.90
2019-04-30T14:29:07.881Z,10.65
2019-04-30T14:32:18.491Z,8.48
2019-04-30T14:35:28.562Z,10.43
2019-04-30T14:38:40.500Z,10.30
2019-04-30T14:41:51.395Z,9.18
2019-04-30T14:45:02.207Z,9.18
2019-04-30T14:48:14.665Z,10.13
2019-04-30T14:51:23.286Z,8.43
2019-04-30T15:01:05.586Z,11.57
2019-04-30T15:04:12.409Z,12.40
2019-04-30T15:07:20.024Z,13.97
2019-04-30T15:25:59.447Z,11.33
2019-04-30T15:32:14.263Z,10.85
2019-04-30T15:35:21.229Z,12.88
2019-04-30T15:38:46.434Z,10.30
2019-04-30T15:41:53.770Z,14.28
2019-04-30T15:45:00.831Z,9.93
2019-04-30T15:48:08.580Z,9.73
2019-04-30T15:51:15.784Z,11.43
2019-04-30T15:54:23.268Z,14.18
2019-04-30T15:57:30.390Z,12.88
2019-04-30T16:06:52.968Z,8.23
2019-04-30T16:10:09.275Z,13.10
2019-04-30T16:13:19.464Z,11.50
2019-04-30T16:16:28.256Z,10.65
2019-04-30T16:19:36.248Z,13.05
2019-04-30T16:22:43.448Z,12.82
2019-04-30T16:25:50.634Z,10.78
2019-04-30T16:28:58.726Z,13.83
2019-04-30T16:32:09.282Z,11.30
2019-04-30T16:35:19.527Z,11.87
2019-04-30T16:38:28.832Z,18.07
2019-04-30T16:41:36.275Z,15.63
2019-04-30T16:44:44.747Z,12.70
2019-04-30T16:47:51.955Z,12.70
2019-04-30T16:50:59.053Z,16.33
2019-04-30T16:54:06.370Z,13.63
2019-04-30T17:00:20.337Z,15.43
2019-04-30T17:03:31.329Z,15.13
2019-04-30T17:06:40.618Z,16.97
2019-04-30T17:09:50.973Z,18.13
2019-04-30T17:13:00.775Z,15.00
2019-04-30T17:16:11.305Z,13.20
2019-04-30T17:19:20.157Z,16.97
2019-04-30T17:22:29.232Z,12.53
2019-04-30T17:25:37.763Z,18.93
2019-04-30T17:28:45.680Z,9.30
2019-04-30T17:31:53.553Z,12.60
2019-04-30T17:35:01.031Z,11.23
2019-04-30T17:38:11.348Z,11.80
2019-04-30T17:41:23.278Z,8.07
2019-04-30T17:44:30.268Z,8.97
2019-04-30T17:47:38.994Z,15.13
2019-04-30T17:50:46.553Z,10.83
2019-04-30T17:54:11.523Z,8.60
2019-04-30T17:57:31.037Z,9.47
2019-04-30T18:00:31.716Z,9.63
2019-04-30T18:03:39.768Z,9.03
2019-04-30T18:06:50.640Z,9.63
2019-04-30T18:10:03.459Z,12.33
2019-04-30T18:13:13.083Z,9.00
2019-04-30T18:16:22.679Z,11.03
2019-04-30T18:19:33.920Z,8.30
2019-04-30T18:22:40.956Z,7.90
2019-04-30T18:25:59.318Z,8.23
2019-04-30T18:29:06.762Z,11.07
2019-04-30T18:32:14.625Z,11.70
2019-04-30T18:35:28.525Z,57.37
2019-04-30T18:38:40.283Z,89.83
2019-04-30T18:41:48.735Z,52.33
2019-04-30T18:44:59.932Z,44.80
2019-04-30T18:48:10.193Z,43.77
2019-04-30T18:51:32.887Z,34.30
2019-04-30T18:54:28.600Z,18.77
2019-04-30T18:57:35.275Z,15.93
2019-04-30T19:00:43.725Z,14.43
2019-04-30T19:03:51.345Z,18.63
2019-04-30T19:07:04.275Z,17.87
2019-04-30T19:10:19.323Z,26.70
2019-04-30T19:13:34.526Z,28.23
2019-04-30T19:16:53.441Z,22.27
2019-04-30T19:20:03.258Z,16.30
2019-04-30T19:23:11.430Z,15.90
2019-04-30T19:26:20.927Z,13.73
2019-04-30T19:29:28.517Z,16.53
2019-04-30T19:32:39.037Z,11.73
2019-04-30T19:35:50.317Z,17.27
2019-04-30T19:38:55.290Z,16.30
2019-04-30T19:42:05.312Z,13.77
2019-04-30T19:45:15.822Z,22.20
2019-04-30T19:48:24.964Z,37.70
2019-04-30T19:51:35.031Z,34.53
2019-04-30T19:54:42.545Z,27.97
2019-04-30T19:57:51.740Z,42.20
2019-04-30T20:01:00.866Z,36.00
2019-04-30T20:06:43.317Z,37.87
2019-04-30T20:10:00.194Z,33.57
2019-04-30T20:13:01.191Z,56.90
2019-04-30T20:16:11.962Z,57.67
2019-04-30T20:19:19.947Z,78.27
2019-04-30T20:22:29.039Z,53.73
2019-04-30T20:25:36.277Z,56.67
2019-04-30T20:28:43.345Z,58.80
2019-04-30T20:31:50.705Z,59.70
2019-04-30T20:34:59.721Z,57.50
2019-04-30T20:41:35.264Z,65.13
2019-04-30T20:44:42.568Z,61.73
2019-04-30T20:47:49.660Z,149.30
2019-04-30T20:50:57.276Z,168.00
2019-04-30T20:54:05.960Z,192.90
2019-04-30T21:00:23.278Z,95.67
2019-04-30T21:03:30.895Z,60.27
2019-04-30T21:06:43.244Z,52.13
2019-04-30T21:09:50.847Z,39.97
2019-04-30T21:13:00.716Z,39.93
2019-04-30T21:16:08.375Z,33.77
2019-04-30T21:19:15.441Z,27.40
2019-04-30T21:25:29.909Z,21.37
2019-04-30T21:28:39.213Z,18.27
2019-04-30T21:32:04.536Z,20.13
2019-04-30T21:35:24.293Z,19.70
2019-04-30T21:38:32.964Z,19.03
2019-04-30T21:41:40.608Z,21.47
2019-04-30T21:44:47.955Z,18.73
2019-04-30T21:47:56.507Z,18.00
2019-04-30T21:51:03.878Z,19.23
2019-04-30T21:54:12.504Z,18.70
2019-04-30T22:00:41.694Z,25.57
2019-04-30T22:03:50.594Z,20.07
2019-04-30T22:06:59.515Z,22.53
2019-04-30T22:10:09.531Z,26.63
2019-04-30T22:13:18.526Z,30.33
2019-04-30T22:16:26.588Z,42.47
2019-04-30T22:19:36.714Z,50.83
2019-04-30T22:22:44.790Z,48.33
2019-04-30T22:25:52.310Z,37.13
2019-04-30T22:28:59.801Z,33.43
2019-04-30T22:32:06.636Z,33.77
2019-04-30T22:35:25.897Z,35.17
2019-04-30T22:38:42.317Z,37.77
2019-04-30T22:41:50.069Z,31.73
2019-04-30T22:44:57.254Z,30.93
2019-04-30T22:48:04.257Z,35.40
2019-04-30T22:51:11.548Z,33.37
2019-04-30T22:54:18.580Z,31.87
2019-04-30T22:57:25.466Z,35.87
2019-04-30T23:00:37.369Z,31.70
2019-04-30T23:06:50.423Z,42.87
2019-04-30T23:09:57.354Z,42.40
2019-04-30T23:13:04.646Z,44.80
2019-04-30T23:16:11.608Z,48.60
2019-04-30T23:19:18.865Z,61.47
2019-04-30T23:22:25.669Z,47.63
2019-04-30T23:25:32.548Z,80.57
2019-04-30T23:28:40.133Z,60.90
2019-04-30T23:31:47.116Z,66.50
2019-04-30T23:34:54.048Z,52.30
2019-04-30T23:38:01.041Z,52.83
2019-04-30T23:41:08.253Z,60.43
2019-04-30T23:44:15.309Z,56.67
2019-04-30T23:47:22.429Z,40.10
2019-04-30T23:53:35.278Z,41.57
2019-04-30T23:56:42.345Z,39.67
2019-04-30T23:59:49.265Z,38.53
